sensor_id;sensor_type;location;lat;lon;timestamp;P1;durP1;ratioP1;P2;durP2;ratioP2
4468;SDS011;2247;42.666;23.292;2023-02-26T00:01:42;11.27;;;4.10;;
4468;SDS011;2247;42.666;23.292;2023-02-26T00:04:09;14.70;;;4.20;;
4468;SDS011;2247;42.666;23.292;2023-02-26T00:06:37;17.53;;;4.80;;
4468;SDS011;2247;42.666;23.292;2023-02-26T00:09:16;9.37;;;4.70;;
4468;SDS011;2247;42.666;23.292;2023-02-26T00:11:44;16.57;;;4.30;;
4468;SDS011;2247;42.666;23.292;2023-02-26T00:14:12;12.60;;;4.97;;
4468;SDS011;2247;42.666;23.292;2023-02-26T00:16:41;16.80;;;4.80;;
4468;SDS011;2247;42.666;23.292;2023-02-26T00:19:10;16.67;;;5.63;;
4468;SDS011;2247;42.666;23.292;2023-02-26T00:21:38;15.30;;;4.43;;
4468;SDS011;2247;42.666;23.292;2023-02-26T00:24:05;10.80;;;4.47;;
4468;SDS011;2247;42.666;23.292;2023-02-26T00:26:32;10.60;;;4.27;;
4468;SDS011;2247;42.666;23.292;2023-02-26T00:29:00;11.23;;;3.87;;
4468;SDS011;2247;42.666;23.292;2023-02-26T00:31:29;18.20;;;4.80;;
4468;SDS011;2247;42.666;23.292;2023-02-26T00:33:58;17.93;;;5.03;;
4468;SDS011;2247;42.666;23.292;2023-02-26T00:36:28;14.77;;;5.77;;
4468;SDS011;2247;42.666;23.292;2023-02-26T00:39:06;14.47;;;4.37;;
4468;SDS011;2247;42.666;23.292;2023-02-26T00:41:41;17.67;;;4.40;;
4468;SDS011;2247;42.666;23.292;2023-02-26T00:44:08;25.10;;;5.00;;
4468;SDS011;2247;42.666;23.292;2023-02-26T00:46:37;13.53;;;4.73;;
4468;SDS011;2247;42.666;23.292;2023-02-26T00:49:13;22.87;;;4.53;;
4468;SDS011;2247;42.666;23.292;2023-02-26T00:51:48;16.23;;;3.63;;
4468;SDS011;2247;42.666;23.292;2023-02-26T00:54:18;19.17;;;4.30;;
4468;SDS011;2247;42.666;23.292;2023-02-26T00:56:46;8.40;;;4.00;;
4468;SDS011;2247;42.666;23.292;2023-02-26T00:59:13;16.83;;;4.47;;
4468;SDS011;2247;42.666;23.292;2023-02-26T01:01:41;13.10;;;4.20;;
4468;SDS011;2247;42.666;23.292;2023-02-26T01:04:08;14.17;;;4.33;;
4468;SDS011;2247;42.666;23.292;2023-02-26T01:06:38;9.50;;;4.40;;
4468;SDS011;2247;42.666;23.292;2023-02-26T01:09:10;18.70;;;4.27;;
4468;SDS011;2247;42.666;23.292;2023-02-26T01:11:45;8.60;;;3.93;;
4468;SDS011;2247;42.666;23.292;2023-02-26T01:14:13;13.57;;;4.30;;
4468;SDS011;2247;42.666;23.292;2023-02-26T01:16:41;21.37;;;4.63;;
4468;SDS011;2247;42.666;23.292;2023-02-26T01:19:16;6.57;;;3.53;;
4468;SDS011;2247;42.666;23.292;2023-02-26T01:21:53;20.30;;;4.30;;
4468;SDS011;2247;42.666;23.292;2023-02-26T01:24:25;14.20;;;4.40;;
4468;SDS011;2247;42.666;23.292;2023-02-26T01:26:55;14.03;;;3.53;;
4468;SDS011;2247;42.666;23.292;2023-02-26T01:29:22;19.83;;;4.10;;
4468;SDS011;2247;42.666;23.292;2023-02-26T01:31:51;11.97;;;4.47;;
4468;SDS011;2247;42.666;23.292;2023-02-26T01:34:25;13.83;;;4.17;;
4468;SDS011;2247;42.666;23.292;2023-02-26T01:36:59;10.97;;;4.13;;
4468;SDS011;2247;42.666;23.292;2023-02-26T01:39:35;9.77;;;5.10;;
4468;SDS011;2247;42.666;23.292;2023-02-26T01:42:05;10.23;;;4.40;;
4468;SDS011;2247;42.666;23.292;2023-02-26T01:44:41;10.20;;;4.13;;
4468;SDS011;2247;42.666;23.292;2023-02-26T01:47:20;8.90;;;3.50;;
4468;SDS011;2247;42.666;23.292;2023-02-26T01:49:54;13.00;;;4.20;;
4468;SDS011;2247;42.666;23.292;2023-02-26T01:55:27;11.57;;;4.30;;
4468;SDS011;2247;42.666;23.292;2023-02-26T01:57:57;14.30;;;4.47;;
4468;SDS011;2247;42.666;23.292;2023-02-26T02:00:28;14.37;;;4.67;;
4468;SDS011;2247;42.666;23.292;2023-02-26T02:02:57;9.47;;;4.00;;
4468;SDS011;2247;42.666;23.292;2023-02-26T02:05:24;14.23;;;4.37;;
4468;SDS011;2247;42.666;23.292;2023-02-26T02:07:56;16.50;;;3.90;;
4468;SDS011;2247;42.666;23.292;2023-02-26T02:10:23;19.40;;;4.30;;
4468;SDS011;2247;42.666;23.292;2023-02-26T02:12:53;18.70;;;4.30;;
4468;SDS011;2247;42.666;23.292;2023-02-26T02:15:27;7.57;;;3.50;;
4468;SDS011;2247;42.666;23.292;2023-02-26T02:18:03;9.63;;;3.67;;
4468;SDS011;2247;42.666;23.292;2023-02-26T02:23:31;5.03;;;3.43;;
4468;SDS011;2247;42.666;23.292;2023-02-26T02:26:09;8.87;;;3.70;;
4468;SDS011;2247;42.666;23.292;2023-02-26T02:29:01;14.50;;;3.60;;
4468;SDS011;2247;42.666;23.292;2023-02-26T02:31:48;13.53;;;3.70;;
4468;SDS011;2247;42.666;23.292;2023-02-26T02:34:20;11.27;;;3.97;;
4468;SDS011;2247;42.666;23.292;2023-02-26T02:36:52;7.33;;;3.53;;
4468;SDS011;2247;42.666;23.292;2023-02-26T02:39:24;10.27;;;3.63;;
4468;SDS011;2247;42.666;23.292;2023-02-26T02:41:55;16.80;;;4.17;;
4468;SDS011;2247;42.666;23.292;2023-02-26T02:44:27;11.60;;;3.73;;
4468;SDS011;2247;42.666;23.292;2023-02-26T02:46:58;17.43;;;3.90;;
4468;SDS011;2247;42.666;23.292;2023-02-26T02:49:28;15.87;;;4.30;;
4468;SDS011;2247;42.666;23.292;2023-02-26T02:52:01;12.33;;;4.00;;
4468;SDS011;2247;42.666;23.292;2023-02-26T02:54:35;11.20;;;3.70;;
4468;SDS011;2247;42.666;23.292;2023-02-26T02:57:07;14.60;;;3.83;;
4468;SDS011;2247;42.666;23.292;2023-02-26T02:59:41;13.13;;;3.70;;
4468;SDS011;2247;42.666;23.292;2023-02-26T03:02:15;17.83;;;4.33;;
4468;SDS011;2247;42.666;23.292;2023-02-26T03:04:46;14.60;;;3.90;;
4468;SDS011;2247;42.666;23.292;2023-02-26T03:07:14;15.50;;;3.43;;
4468;SDS011;2247;42.666;23.292;2023-02-26T03:09:41;11.00;;;3.70;;
4468;SDS011;2247;42.666;23.292;2023-02-26T03:12:08;13.57;;;3.63;;
4468;SDS011;2247;42.666;23.292;2023-02-26T03:14:35;21.13;;;4.10;;
4468;SDS011;2247;42.666;23.292;2023-02-26T03:17:18;13.80;;;3.83;;
4468;SDS011;2247;42.666;23.292;2023-02-26T03:19:55;13.77;;;3.33;;
4468;SDS011;2247;42.666;23.292;2023-02-26T03:22:31;10.70;;;3.80;;
4468;SDS011;2247;42.666;23.292;2023-02-26T03:25:06;10.43;;;3.10;;
4468;SDS011;2247;42.666;23.292;2023-02-26T03:27:42;21.40;;;3.27;;
4468;SDS011;2247;42.666;23.292;2023-02-26T03:30:13;11.97;;;3.60;;
4468;SDS011;2247;42.666;23.292;2023-02-26T03:32:47;6.63;;;3.13;;
4468;SDS011;2247;42.666;23.292;2023-02-26T03:35:24;12.17;;;3.33;;
4468;SDS011;2247;42.666;23.292;2023-02-26T03:37:57;6.80;;;3.57;;
4468;SDS011;2247;42.666;23.292;2023-02-26T03:40:27;8.70;;;3.73;;
4468;SDS011;2247;42.666;23.292;2023-02-26T03:42:58;8.07;;;3.53;;
4468;SDS011;2247;42.666;23.292;2023-02-26T03:45:29;10.60;;;3.90;;
4468;SDS011;2247;42.666;23.292;2023-02-26T03:48:01;17.17;;;3.50;;
4468;SDS011;2247;42.666;23.292;2023-02-26T03:50:31;13.77;;;4.20;;
4468;SDS011;2247;42.666;23.292;2023-02-26T03:53:02;21.73;;;3.90;;
4468;SDS011;2247;42.666;23.292;2023-02-26T03:55:37;6.40;;;3.60;;
4468;SDS011;2247;42.666;23.292;2023-02-26T03:58:08;12.13;;;4.00;;
4468;SDS011;2247;42.666;23.292;2023-02-26T04:00:36;20.43;;;4.20;;
4468;SDS011;2247;42.666;23.292;2023-02-26T04:03:08;14.33;;;3.40;;
4468;SDS011;2247;42.666;23.292;2023-02-26T04:05:39;12.33;;;4.33;;
4468;SDS011;2247;42.666;23.292;2023-02-26T04:08:10;22.57;;;4.00;;
4468;SDS011;2247;42.666;23.292;2023-02-26T04:10:39;17.40;;;4.27;;
4468;SDS011;2247;42.666;23.292;2023-02-26T04:13:09;9.00;;;3.33;;
4468;SDS011;2247;42.666;23.292;2023-02-26T04:15:37;7.23;;;2.90;;
4468;SDS011;2247;42.666;23.292;2023-02-26T04:18:04;11.50;;;3.80;;
4468;SDS011;2247;42.666;23.292;2023-02-26T04:20:32;20.60;;;4.07;;
4468;SDS011;2247;42.666;23.292;2023-02-26T04:22:59;11.33;;;4.43;;
4468;SDS011;2247;42.666;23.292;2023-02-26T04:25:26;20.63;;;3.90;;
4468;SDS011;2247;42.666;23.292;2023-02-26T04:27:53;19.37;;;3.40;;
4468;SDS011;2247;42.666;23.292;2023-02-26T04:30:20;11.33;;;3.80;;
4468;SDS011;2247;42.666;23.292;2023-02-26T04:32:47;17.67;;;3.80;;
4468;SDS011;2247;42.666;23.292;2023-02-26T04:35:15;20.07;;;3.83;;
4468;SDS011;2247;42.666;23.292;2023-02-26T04:37:48;9.47;;;3.30;;
4468;SDS011;2247;42.666;23.292;2023-02-26T04:40:15;10.27;;;3.40;;
4468;SDS011;2247;42.666;23.292;2023-02-26T04:42:43;13.47;;;3.47;;
4468;SDS011;2247;42.666;23.292;2023-02-26T04:45:11;10.37;;;3.50;;
4468;SDS011;2247;42.666;23.292;2023-02-26T04:47:50;26.20;;;4.27;;
4468;SDS011;2247;42.666;23.292;2023-02-26T04:50:17;19.80;;;3.70;;
4468;SDS011;2247;42.666;23.292;2023-02-26T04:52:44;18.30;;;3.67;;
4468;SDS011;2247;42.666;23.292;2023-02-26T04:55:13;13.30;;;3.70;;
4468;SDS011;2247;42.666;23.292;2023-02-26T04:57:40;10.83;;;3.70;;
4468;SDS011;2247;42.666;23.292;2023-02-26T05:47:38;12.60;;;3.80;;
4468;SDS011;2247;42.666;23.292;2023-02-26T05:50:09;13.23;;;3.20;;
4468;SDS011;2247;42.666;23.292;2023-02-26T05:58:02;14.40;;;2.83;;
4468;SDS011;2247;42.666;23.292;2023-02-26T06:00:54;18.23;;;3.20;;
4468;SDS011;2247;42.666;23.292;2023-02-26T06:03:31;18.43;;;3.60;;
4468;SDS011;2247;42.666;23.292;2023-02-26T06:05:59;15.63;;;3.33;;
4468;SDS011;2247;42.666;23.292;2023-02-26T06:11:07;19.20;;;3.73;;
4468;SDS011;2247;42.666;23.292;2023-02-26T06:36:59;22.23;;;3.73;;
4468;SDS011;2247;42.666;23.292;2023-02-26T06:39:26;22.33;;;3.23;;
4468;SDS011;2247;42.666;23.292;2023-02-26T06:46:59;21.27;;;3.50;;
4468;SDS011;2247;42.666;23.292;2023-02-26T06:49:28;22.83;;;3.70;;
4468;SDS011;2247;42.666;23.292;2023-02-26T06:51:56;28.93;;;3.37;;
4468;SDS011;2247;42.666;23.292;2023-02-26T06:57:00;27.70;;;4.50;;
4468;SDS011;2247;42.666;23.292;2023-02-26T07:04:38;24.03;;;3.20;;
4468;SDS011;2247;42.666;23.292;2023-02-26T07:07:05;20.70;;;3.50;;
4468;SDS011;2247;42.666;23.292;2023-02-26T07:09:32;14.53;;;2.90;;
4468;SDS011;2247;42.666;23.292;2023-02-26T07:12:01;27.13;;;3.53;;
4468;SDS011;2247;42.666;23.292;2023-02-26T07:14:28;22.77;;;3.83;;
4468;SDS011;2247;42.666;23.292;2023-02-26T07:16:55;20.50;;;3.50;;
4468;SDS011;2247;42.666;23.292;2023-02-26T07:19:22;16.40;;;3.40;;
4468;SDS011;2247;42.666;23.292;2023-02-26T07:21:49;20.27;;;3.93;;
4468;SDS011;2247;42.666;23.292;2023-02-26T07:24:16;14.97;;;3.43;;
4468;SDS011;2247;42.666;23.292;2023-02-26T07:26:43;22.13;;;3.47;;
4468;SDS011;2247;42.666;23.292;2023-02-26T07:29:12;29.47;;;3.90;;
4468;SDS011;2247;42.666;23.292;2023-02-26T07:31:39;30.40;;;4.10;;
4468;SDS011;2247;42.666;23.292;2023-02-26T07:34:06;19.40;;;4.23;;
4468;SDS011;2247;42.666;23.292;2023-02-26T07:36:33;15.93;;;3.67;;
4468;SDS011;2247;42.666;23.292;2023-02-26T07:39:01;17.97;;;3.73;;
4468;SDS011;2247;42.666;23.292;2023-02-26T07:41:28;38.27;;;3.87;;
4468;SDS011;2247;42.666;23.292;2023-02-26T07:43:55;25.83;;;3.90;;
4468;SDS011;2247;42.666;23.292;2023-02-26T07:46:23;16.77;;;3.30;;
4468;SDS011;2247;42.666;23.292;2023-02-26T07:48:51;19.40;;;3.80;;
4468;SDS011;2247;42.666;23.292;2023-02-26T07:51:17;16.47;;;3.80;;
4468;SDS011;2247;42.666;23.292;2023-02-26T07:53:44;26.63;;;3.87;;
4468;SDS011;2247;42.666;23.292;2023-02-26T07:56:11;25.30;;;4.07;;
4468;SDS011;2247;42.666;23.292;2023-02-26T07:58:38;18.10;;;3.90;;
4468;SDS011;2247;42.666;23.292;2023-02-26T08:01:05;16.50;;;3.47;;
4468;SDS011;2247;42.666;23.292;2023-02-26T08:03:33;17.47;;;3.60;;
4468;SDS011;2247;42.666;23.292;2023-02-26T08:06:00;15.40;;;3.00;;
4468;SDS011;2247;42.666;23.292;2023-02-26T08:08:29;18.57;;;3.80;;
4468;SDS011;2247;42.666;23.292;2023-02-26T08:10:57;27.43;;;4.07;;
4468;SDS011;2247;42.666;23.292;2023-02-26T08:13:25;13.77;;;3.60;;
4468;SDS011;2247;42.666;23.292;2023-02-26T08:15:53;18.03;;;3.73;;
4468;SDS011;2247;42.666;23.292;2023-02-26T08:18:21;15.47;;;3.97;;
4468;SDS011;2247;42.666;23.292;2023-02-26T08:20:51;24.03;;;4.07;;
4468;SDS011;2247;42.666;23.292;2023-02-26T08:23:18;33.63;;;4.30;;
4468;SDS011;2247;42.666;23.292;2023-02-26T08:25:47;23.30;;;3.37;;
4468;SDS011;2247;42.666;23.292;2023-02-26T08:28:14;19.83;;;3.63;;
4468;SDS011;2247;42.666;23.292;2023-02-26T08:30:42;18.27;;;3.80;;
4468;SDS011;2247;42.666;23.292;2023-02-26T08:33:10;22.13;;;4.17;;
4468;SDS011;2247;42.666;23.292;2023-02-26T08:35:39;13.23;;;3.93;;
4468;SDS011;2247;42.666;23.292;2023-02-26T08:38:09;15.53;;;3.40;;
4468;SDS011;2247;42.666;23.292;2023-02-26T08:40:37;23.97;;;4.20;;
4468;SDS011;2247;42.666;23.292;2023-02-26T08:45:42;23.07;;;4.27;;
4468;SDS011;2247;42.666;23.292;2023-02-26T08:48:14;27.17;;;4.17;;
4468;SDS011;2247;42.666;23.292;2023-02-26T08:50:41;14.70;;;3.60;;
4468;SDS011;2247;42.666;23.292;2023-02-26T08:53:11;21.87;;;3.83;;
4468;SDS011;2247;42.666;23.292;2023-02-26T08:55:39;13.33;;;3.50;;
4468;SDS011;2247;42.666;23.292;2023-02-26T08:58:08;21.50;;;3.90;;
4468;SDS011;2247;42.666;23.292;2023-02-26T09:00:38;13.90;;;3.63;;
4468;SDS011;2247;42.666;23.292;2023-02-26T09:03:06;24.10;;;4.03;;
4468;SDS011;2247;42.666;23.292;2023-02-26T09:05:34;17.43;;;2.90;;
4468;SDS011;2247;42.666;23.292;2023-02-26T09:08:02;24.17;;;3.73;;
4468;SDS011;2247;42.666;23.292;2023-02-26T09:10:31;20.03;;;4.17;;
4468;SDS011;2247;42.666;23.292;2023-02-26T09:12:58;16.07;;;3.37;;
4468;SDS011;2247;42.666;23.292;2023-02-26T09:15:26;23.67;;;3.00;;
4468;SDS011;2247;42.666;23.292;2023-02-26T09:17:53;14.90;;;3.07;;
4468;SDS011;2247;42.666;23.292;2023-02-26T09:20:22;25.10;;;3.90;;
4468;SDS011;2247;42.666;23.292;2023-02-26T09:22:51;23.50;;;4.00;;
4468;SDS011;2247;42.666;23.292;2023-02-26T09:25:20;17.53;;;3.97;;
4468;SDS011;2247;42.666;23.292;2023-02-26T09:27:52;17.87;;;4.93;;
4468;SDS011;2247;42.666;23.292;2023-02-26T09:30:21;16.83;;;4.37;;
4468;SDS011;2247;42.666;23.292;2023-02-26T09:32:50;31.20;;;4.63;;
4468;SDS011;2247;42.666;23.292;2023-02-26T09:35:17;17.53;;;5.37;;
4468;SDS011;2247;42.666;23.292;2023-02-26T09:37:44;26.80;;;5.80;;
4468;SDS011;2247;42.666;23.292;2023-02-26T09:40:20;18.60;;;5.53;;
4468;SDS011;2247;42.666;23.292;2023-02-26T09:42:58;23.73;;;6.40;;
4468;SDS011;2247;42.666;23.292;2023-02-26T09:45:35;27.63;;;6.77;;
4468;SDS011;2247;42.666;23.292;2023-02-26T09:48:07;24.63;;;6.63;;
4468;SDS011;2247;42.666;23.292;2023-02-26T09:50:42;32.27;;;6.77;;
4468;SDS011;2247;42.666;23.292;2023-02-26T09:53:15;20.97;;;6.40;;
4468;SDS011;2247;42.666;23.292;2023-02-26T09:55:48;15.73;;;6.30;;
4468;SDS011;2247;42.666;23.292;2023-02-26T09:58:20;21.47;;;7.50;;
4468;SDS011;2247;42.666;23.292;2023-02-26T10:00:57;20.33;;;6.33;;
4468;SDS011;2247;42.666;23.292;2023-02-26T10:03:35;28.73;;;6.37;;
4468;SDS011;2247;42.666;23.292;2023-02-26T10:06:16;17.73;;;5.50;;
4468;SDS011;2247;42.666;23.292;2023-02-26T10:08:51;30.67;;;6.10;;
4468;SDS011;2247;42.666;23.292;2023-02-26T10:11:28;21.00;;;5.20;;
4468;SDS011;2247;42.666;23.292;2023-02-26T10:14:00;25.07;;;5.87;;
4468;SDS011;2247;42.666;23.292;2023-02-26T10:16:32;21.63;;;5.10;;
4468;SDS011;2247;42.666;23.292;2023-02-26T10:19:05;22.30;;;5.13;;
4468;SDS011;2247;42.666;23.292;2023-02-26T10:21:35;16.50;;;4.17;;
4468;SDS011;2247;42.666;23.292;2023-02-26T10:24:10;22.67;;;5.17;;
4468;SDS011;2247;42.666;23.292;2023-02-26T10:26:44;17.47;;;3.90;;
4468;SDS011;2247;42.666;23.292;2023-02-26T10:29:16;16.33;;;4.73;;
4468;SDS011;2247;42.666;23.292;2023-02-26T10:31:53;13.70;;;3.90;;
4468;SDS011;2247;42.666;23.292;2023-02-26T10:34:34;18.13;;;3.50;;
4468;SDS011;2247;42.666;23.292;2023-02-26T10:37:07;14.73;;;3.77;;
4468;SDS011;2247;42.666;23.292;2023-02-26T10:39:44;22.87;;;4.43;;
4468;SDS011;2247;42.666;23.292;2023-02-26T10:42:19;22.27;;;4.63;;
4468;SDS011;2247;42.666;23.292;2023-02-26T10:44:54;19.07;;;4.30;;
4468;SDS011;2247;42.666;23.292;2023-02-26T10:47:34;18.43;;;4.43;;
4468;SDS011;2247;42.666;23.292;2023-02-26T10:50:11;33.07;;;4.00;;
4468;SDS011;2247;42.666;23.292;2023-02-26T10:52:40;23.23;;;4.47;;
4468;SDS011;2247;42.666;23.292;2023-02-26T10:55:18;17.00;;;4.13;;
4468;SDS011;2247;42.666;23.292;2023-02-26T10:57:57;16.43;;;3.73;;
4468;SDS011;2247;42.666;23.292;2023-02-26T11:00:30;22.10;;;4.30;;
4468;SDS011;2247;42.666;23.292;2023-02-26T11:02:59;18.23;;;4.27;;
4468;SDS011;2247;42.666;23.292;2023-02-26T11:05:28;10.00;;;3.97;;
4468;SDS011;2247;42.666;23.292;2023-02-26T11:08:00;17.87;;;3.90;;
4468;SDS011;2247;42.666;23.292;2023-02-26T11:10:34;18.23;;;4.93;;
4468;SDS011;2247;42.666;23.292;2023-02-26T11:13:06;21.30;;;4.27;;
4468;SDS011;2247;42.666;23.292;2023-02-26T11:15:38;18.33;;;4.30;;
4468;SDS011;2247;42.666;23.292;2023-02-26T11:18:05;19.77;;;4.37;;
4468;SDS011;2247;42.666;23.292;2023-02-26T11:20:44;25.33;;;4.33;;
4468;SDS011;2247;42.666;23.292;2023-02-26T11:23:12;17.50;;;4.60;;
4468;SDS011;2247;42.666;23.292;2023-02-26T11:25:42;25.00;;;5.23;;
4468;SDS011;2247;42.666;23.292;2023-02-26T11:28:18;18.30;;;4.77;;
4468;SDS011;2247;42.666;23.292;2023-02-26T11:30:49;27.13;;;5.00;;
4468;SDS011;2247;42.666;23.292;2023-02-26T11:33:21;23.00;;;5.10;;
4468;SDS011;2247;42.666;23.292;2023-02-26T11:35:49;22.33;;;4.73;;
4468;SDS011;2247;42.666;23.292;2023-02-26T11:38:18;28.20;;;4.93;;
4468;SDS011;2247;42.666;23.292;2023-02-26T11:40:48;17.33;;;4.40;;
4468;SDS011;2247;42.666;23.292;2023-02-26T11:43:18;16.00;;;3.40;;
4468;SDS011;2247;42.666;23.292;2023-02-26T11:45:51;17.53;;;4.40;;
4468;SDS011;2247;42.666;23.292;2023-02-26T11:48:23;22.33;;;4.30;;
4468;SDS011;2247;42.666;23.292;2023-02-26T11:50:55;22.57;;;4.20;;
4468;SDS011;2247;42.666;23.292;2023-02-26T11:53:29;20.53;;;4.90;;
4468;SDS011;2247;42.666;23.292;2023-02-26T11:55:59;21.87;;;4.10;;
4468;SDS011;2247;42.666;23.292;2023-02-26T11:58:29;13.77;;;4.10;;
4468;SDS011;2247;42.666;23.292;2023-02-26T12:01:03;21.53;;;4.53;;
4468;SDS011;2247;42.666;23.292;2023-02-26T12:03:33;18.67;;;4.90;;
4468;SDS011;2247;42.666;23.292;2023-02-26T12:06:04;13.40;;;4.30;;
4468;SDS011;2247;42.666;23.292;2023-02-26T12:08:33;30.43;;;3.60;;
4468;SDS011;2247;42.666;23.292;2023-02-26T12:11:07;12.63;;;4.33;;
4468;SDS011;2247;42.666;23.292;2023-02-26T12:13:43;21.63;;;4.50;;
4468;SDS011;2247;42.666;23.292;2023-02-26T12:16:24;29.23;;;4.83;;
4468;SDS011;2247;42.666;23.292;2023-02-26T12:19:00;32.43;;;5.10;;
4468;SDS011;2247;42.666;23.292;2023-02-26T12:21:40;13.20;;;4.10;;
4468;SDS011;2247;42.666;23.292;2023-02-26T12:24:27;19.80;;;4.47;;
4468;SDS011;2247;42.666;23.292;2023-02-26T12:27:09;16.10;;;4.10;;
4468;SDS011;2247;42.666;23.292;2023-02-26T12:29:47;29.87;;;5.47;;
4468;SDS011;2247;42.666;23.292;2023-02-26T12:32:34;19.60;;;4.30;;
4468;SDS011;2247;42.666;23.292;2023-02-26T12:35:14;26.60;;;4.40;;
4468;SDS011;2247;42.666;23.292;2023-02-26T12:38:05;17.70;;;3.90;;
4468;SDS011;2247;42.666;23.292;2023-02-26T12:40:50;26.37;;;4.23;;
4468;SDS011;2247;42.666;23.292;2023-02-26T12:43:32;17.53;;;3.97;;
4468;SDS011;2247;42.666;23.292;2023-02-26T12:46:09;29.00;;;4.70;;
4468;SDS011;2247;42.666;23.292;2023-02-26T12:48:47;16.33;;;4.50;;
4468;SDS011;2247;42.666;23.292;2023-02-26T12:51:28;16.47;;;4.70;;
4468;SDS011;2247;42.666;23.292;2023-02-26T12:54:25;24.70;;;4.40;;
4468;SDS011;2247;42.666;23.292;2023-02-26T12:57:09;23.63;;;5.00;;
4468;SDS011;2247;42.666;23.292;2023-02-26T12:59:57;13.70;;;4.47;;
4468;SDS011;2247;42.666;23.292;2023-02-26T13:05:36;17.60;;;5.07;;
4468;SDS011;2247;42.666;23.292;2023-02-26T13:08:19;16.63;;;4.80;;
4468;SDS011;2247;42.666;23.292;2023-02-26T13:10:56;23.13;;;4.37;;
4468;SDS011;2247;42.666;23.292;2023-02-26T13:13:46;32.17;;;4.83;;
4468;SDS011;2247;42.666;23.292;2023-02-26T13:16:33;17.00;;;4.70;;
4468;SDS011;2247;42.666;23.292;2023-02-26T13:19:11;17.70;;;4.13;;
4468;SDS011;2247;42.666;23.292;2023-02-26T13:21:49;14.97;;;4.33;;
4468;SDS011;2247;42.666;23.292;2023-02-26T13:24:21;20.63;;;5.27;;
4468;SDS011;2247;42.666;23.292;2023-02-26T13:26:52;16.83;;;4.50;;
4468;SDS011;2247;42.666;23.292;2023-02-26T13:29:22;31.13;;;4.83;;
4468;SDS011;2247;42.666;23.292;2023-02-26T13:31:54;25.03;;;4.70;;
4468;SDS011;2247;42.666;23.292;2023-02-26T13:34:24;21.40;;;4.80;;
4468;SDS011;2247;42.666;23.292;2023-02-26T13:37:00;15.43;;;4.80;;
4468;SDS011;2247;42.666;23.292;2023-02-26T13:39:38;21.40;;;4.90;;
4468;SDS011;2247;42.666;23.292;2023-02-26T13:43:05;31.70;;;5.60;;
4468;SDS011;2247;42.666;23.292;2023-02-26T13:45:44;22.37;;;4.80;;
4468;SDS011;2247;42.666;23.292;2023-02-26T13:48:21;15.53;;;4.37;;
4468;SDS011;2247;42.666;23.292;2023-02-26T13:51:00;15.33;;;4.00;;
4468;SDS011;2247;42.666;23.292;2023-02-26T13:53:50;15.00;;;4.87;;
4468;SDS011;2247;42.666;23.292;2023-02-26T13:56:21;20.50;;;5.93;;
4468;SDS011;2247;42.666;23.292;2023-02-26T14:02:29;28.53;;;4.50;;
4468;SDS011;2247;42.666;23.292;2023-02-26T14:05:05;35.57;;;5.50;;
4468;SDS011;2247;42.666;23.292;2023-02-26T14:07:46;17.20;;;4.73;;
4468;SDS011;2247;42.666;23.292;2023-02-26T14:10:24;30.33;;;4.97;;
4468;SDS011;2247;42.666;23.292;2023-02-26T14:13:01;29.73;;;4.70;;
4468;SDS011;2247;42.666;23.292;2023-02-26T14:15:40;51.90;;;5.40;;
4468;SDS011;2247;42.666;23.292;2023-02-26T14:18:20;53.87;;;6.10;;
4468;SDS011;2247;42.666;23.292;2023-02-26T14:24:06;100.83;;;7.53;;
4468;SDS011;2247;42.666;23.292;2023-02-26T14:27:05;29.60;;;4.70;;
4468;SDS011;2247;42.666;23.292;2023-02-26T14:30:15;25.03;;;5.47;;
4468;SDS011;2247;42.666;23.292;2023-02-26T14:32:45;36.60;;;5.87;;
4468;SDS011;2247;42.666;23.292;2023-02-26T14:35:17;25.50;;;4.10;;
4468;SDS011;2247;42.666;23.292;2023-02-26T14:37:49;21.33;;;4.90;;
4468;SDS011;2247;42.666;23.292;2023-02-26T14:40:39;26.60;;;5.80;;
4468;SDS011;2247;42.666;23.292;2023-02-26T14:43:18;23.57;;;5.50;;
4468;SDS011;2247;42.666;23.292;2023-02-26T14:48:34;32.77;;;5.10;;
4468;SDS011;2247;42.666;23.292;2023-02-26T14:51:05;26.47;;;5.10;;
4468;SDS011;2247;42.666;23.292;2023-02-26T14:53:53;39.97;;;6.57;;
4468;SDS011;2247;42.666;23.292;2023-02-26T14:56:32;28.90;;;4.57;;
4468;SDS011;2247;42.666;23.292;2023-02-26T14:59:17;32.97;;;5.67;;
4468;SDS011;2247;42.666;23.292;2023-02-26T15:01:56;27.77;;;5.20;;
4468;SDS011;2247;42.666;23.292;2023-02-26T15:07:31;22.97;;;5.10;;
4468;SDS011;2247;42.666;23.292;2023-02-26T15:10:17;37.60;;;6.17;;
4468;SDS011;2247;42.666;23.292;2023-02-26T15:12:58;34.17;;;5.93;;
4468;SDS011;2247;42.666;23.292;2023-02-26T15:15:47;28.37;;;5.20;;
4468;SDS011;2247;42.666;23.292;2023-02-26T15:21:13;25.87;;;6.23;;
4468;SDS011;2247;42.666;23.292;2023-02-26T15:23:49;29.00;;;5.40;;
4468;SDS011;2247;42.666;23.292;2023-02-26T15:26:20;27.90;;;4.73;;
4468;SDS011;2247;42.666;23.292;2023-02-26T15:28:53;30.37;;;4.97;;
4468;SDS011;2247;42.666;23.292;2023-02-26T15:31:32;23.13;;;5.60;;
4468;SDS011;2247;42.666;23.292;2023-02-26T15:34:05;25.60;;;5.70;;
4468;SDS011;2247;42.666;23.292;2023-02-26T15:36:35;29.63;;;5.17;;
4468;SDS011;2247;42.666;23.292;2023-02-26T15:39:06;30.40;;;5.90;;
4468;SDS011;2247;42.666;23.292;2023-02-26T15:41:34;35.03;;;6.60;;
4468;SDS011;2247;42.666;23.292;2023-02-26T15:44:06;29.73;;;6.07;;
4468;SDS011;2247;42.666;23.292;2023-02-26T15:46:40;33.70;;;6.23;;
4468;SDS011;2247;42.666;23.292;2023-02-26T15:49:11;41.37;;;7.53;;
4468;SDS011;2247;42.666;23.292;2023-02-26T15:51:42;30.53;;;6.90;;
4468;SDS011;2247;42.666;23.292;2023-02-26T15:54:12;51.97;;;7.97;;
4468;SDS011;2247;42.666;23.292;2023-02-26T15:56:44;42.03;;;8.17;;
4468;SDS011;2247;42.666;23.292;2023-02-26T15:59:15;32.20;;;7.10;;
4468;SDS011;2247;42.666;23.292;2023-02-26T16:01:46;34.80;;;9.10;;
4468;SDS011;2247;42.666;23.292;2023-02-26T16:04:14;43.57;;;9.30;;
4468;SDS011;2247;42.666;23.292;2023-02-26T16:06:44;30.33;;;9.13;;
4468;SDS011;2247;42.666;23.292;2023-02-26T16:09:15;33.70;;;9.20;;
4468;SDS011;2247;42.666;23.292;2023-02-26T16:11:43;20.10;;;7.87;;
4468;SDS011;2247;42.666;23.292;2023-02-26T16:14:14;25.53;;;8.70;;
4468;SDS011;2247;42.666;23.292;2023-02-26T16:16:47;33.37;;;8.80;;
4468;SDS011;2247;42.666;23.292;2023-02-26T16:19:16;27.53;;;7.37;;
4468;SDS011;2247;42.666;23.292;2023-02-26T16:21:47;26.40;;;7.63;;
4468;SDS011;2247;42.666;23.292;2023-02-26T16:24:20;30.87;;;7.60;;
4468;SDS011;2247;42.666;23.292;2023-02-26T16:26:51;39.07;;;7.27;;
4468;SDS011;2247;42.666;23.292;2023-02-26T16:29:21;44.57;;;6.50;;
4468;SDS011;2247;42.666;23.292;2023-02-26T16:31:55;27.43;;;6.53;;
4468;SDS011;2247;42.666;23.292;2023-02-26T16:34:29;43.87;;;6.60;;
4468;SDS011;2247;42.666;23.292;2023-02-26T16:37:16;34.37;;;5.90;;
4468;SDS011;2247;42.666;23.292;2023-02-26T16:39:52;28.00;;;6.30;;
4468;SDS011;2247;42.666;23.292;2023-02-26T16:42:30;36.50;;;6.73;;
4468;SDS011;2247;42.666;23.292;2023-02-26T16:45:13;35.50;;;6.23;;
4468;SDS011;2247;42.666;23.292;2023-02-26T16:47:46;48.63;;;7.50;;
4468;SDS011;2247;42.666;23.292;2023-02-26T16:50:16;34.63;;;7.00;;
4468;SDS011;2247;42.666;23.292;2023-02-26T16:52:51;29.43;;;6.80;;
4468;SDS011;2247;42.666;23.292;2023-02-26T16:55:27;35.00;;;6.67;;
4468;SDS011;2247;42.666;23.292;2023-02-26T16:57:57;30.87;;;6.73;;
4468;SDS011;2247;42.666;23.292;2023-02-26T17:00:28;35.83;;;7.30;;
4468;SDS011;2247;42.666;23.292;2023-02-26T17:02:58;33.37;;;6.07;;
4468;SDS011;2247;42.666;23.292;2023-02-26T17:05:32;27.77;;;5.97;;
4468;SDS011;2247;42.666;23.292;2023-02-26T17:08:04;44.20;;;7.03;;
4468;SDS011;2247;42.666;23.292;2023-02-26T17:10:39;24.80;;;6.80;;
4468;SDS011;2247;42.666;23.292;2023-02-26T17:13:13;49.03;;;6.80;;
4468;SDS011;2247;42.666;23.292;2023-02-26T17:15:44;36.30;;;6.83;;
4468;SDS011;2247;42.666;23.292;2023-02-26T17:18:16;40.07;;;6.40;;
4468;SDS011;2247;42.666;23.292;2023-02-26T17:20:43;24.33;;;7.27;;